createdAt,value
2019-06-27T00:00:17.049Z,2.2
2019-06-27T00:05:17.337Z,2.4
2019-06-27T00:10:17.617Z,3.2
2019-06-27T00:15:17.719Z,3.6
2019-06-27T00:20:17.977Z,2.9
2019-06-27T00:25:16.916Z,3.3
2019-06-27T00:30:17.917Z,2.8
2019-06-27T00:35:16.908Z,2.6
2019-06-27T00:40:21.955Z,2.3
2019-06-27T00:45:16.877Z,3.6
2019-06-27T00:50:17.944Z,3.3
2019-06-27T00:55:16.834Z,2.5
2019-06-27T01:00:17.759Z,3
2019-06-27T01:05:17.693Z,3.6
2019-06-27T01:10:17.762Z,3.3
2019-06-27T01:15:17.695Z,3.9
2019-06-27T01:20:17.942Z,3.5
2019-06-27T01:25:17.071Z,3.2
2019-06-27T01:30:16.979Z,3.2
2019-06-27T01:35:16.886Z,1.7
2019-06-27T01:40:17.160Z,3.2
2019-06-27T01:45:17.120Z,2.7
2019-06-27T01:50:17.069Z,2.9
2019-06-27T01:55:17.118Z,2.5
2019-06-27T02:00:17.037Z,3.6
2019-06-27T02:05:16.959Z,3
2019-06-27T02:10:17.152Z,2.4
2019-06-27T02:15:17.229Z,3.4
2019-06-27T02:20:17.476Z,3.7
2019-06-27T02:25:17.787Z,3.2
2019-06-27T02:30:17.851Z,4.4
2019-06-27T02:35:17.765Z,3.3
2019-06-27T02:40:17.824Z,3.4
2019-06-27T02:45:17.745Z,3.6
2019-06-27T02:50:18.724Z,2.9
2019-06-27T02:55:17.794Z,3.4
2019-06-27T03:00:17.914Z,3.3
2019-06-27T03:05:17.871Z,3.5
2019-06-27T03:10:19.138Z,2.8
2019-06-27T03:15:17.052Z,2.2
2019-06-27T03:20:17.143Z,3
2019-06-27T03:25:18.481Z,1.5
2019-06-27T03:30:17.567Z,3.4
2019-06-27T03:35:17.674Z,3.1
2019-06-27T03:40:17.922Z,3.3
2019-06-27T03:45:17.881Z,3
2019-06-27T03:50:17.940Z,2.6
2019-06-27T03:55:18.062Z,3.1
2019-06-27T04:00:17.948Z,3.5
2019-06-27T04:05:17.859Z,1.9
2019-06-27T04:10:18.279Z,3.3
2019-06-27T04:15:17.238Z,3.8
2019-06-27T04:20:17.347Z,3.3
2019-06-27T04:25:17.306Z,4
2019-06-27T04:30:17.233Z,3.5
2019-06-27T04:35:17.228Z,3.4
2019-06-27T04:40:17.516Z,4.4
2019-06-27T04:45:17.414Z,3.3
2019-06-27T04:50:17.392Z,5.1
2019-06-27T04:55:17.504Z,4.6
2019-06-27T05:00:17.165Z,5.6
2019-06-27T05:05:17.217Z,5.1
2019-06-27T05:10:17.612Z,4.5
2019-06-27T05:15:17.691Z,5.4
2019-06-27T05:20:17.791Z,5
2019-06-27T05:25:17.812Z,1.9
2019-06-27T05:30:17.699Z,5.6
2019-06-27T05:35:17.621Z,5.2
2019-06-27T05:40:17.732Z,3.7
2019-06-27T05:45:17.641Z,3.7
2019-06-27T05:50:17.540Z,3.9
2019-06-27T05:55:17.571Z,3.9
2019-06-27T06:00:29.585Z,3.5
2019-06-27T06:05:17.676Z,4.8
2019-06-27T06:10:17.857Z,5.4
2019-06-27T06:15:17.897Z,7.2
2019-06-27T06:20:16.918Z,4.4
2019-06-27T06:25:17.299Z,4
2019-06-27T06:30:17.425Z,6.3
2019-06-27T06:35:17.326Z,6.5
2019-06-27T06:40:17.557Z,6.2
2019-06-27T06:45:17.476Z,4.5
2019-06-27T06:50:17.363Z,2.5
2019-06-27T06:55:17.264Z,3.5
2019-06-27T07:00:17.123Z,3
2019-06-27T07:05:17.031Z,1.7
2019-06-27T07:10:17.079Z,3.3
2019-06-27T07:15:17.116Z,2.5
2019-06-27T07:20:17.554Z,3.7
2019-06-27T07:25:17.634Z,2
2019-06-27T07:30:17.542Z,4.6
2019-06-27T07:35:18.427Z,3.4
2019-06-27T07:40:17.555Z,3.1
2019-06-27T07:45:17.482Z,1
2019-06-27T07:50:17.395Z,0.5
2019-06-27T07:55:17.321Z,1.4
2019-06-27T08:00:17.379Z,0.8
2019-06-27T08:05:17.412Z,1.4
2019-06-27T08:10:17.469Z,1.3
2019-06-27T08:15:17.506Z,1.6
2019-06-27T08:20:17.657Z,1.3
2019-06-27T08:25:17.546Z,2.9
2019-06-27T08:30:18.748Z,1.2
2019-06-27T08:35:17.874Z,1.2
2019-06-27T08:40:16.884Z,3
2019-06-27T08:45:21.863Z,0.7
2019-06-27T08:50:17.734Z,1.7
2019-06-27T08:55:17.605Z,0.8
2019-06-27T09:00:17.493Z,1.5
2019-06-27T09:05:17.393Z,2.5
2019-06-27T09:10:17.438Z,1
2019-06-27T09:15:17.332Z,1.2
2019-06-27T09:20:17.411Z,1.1
2019-06-27T09:25:17.331Z,2.1
2019-06-27T09:30:17.266Z,1.8
2019-06-27T09:35:17.201Z,1.9
2019-06-27T09:40:17.250Z,1.8
2019-06-27T09:45:17.125Z,0.4
2019-06-27T09:50:17.158Z,0.8
2019-06-27T09:55:17.220Z,1
2019-06-27T10:00:22.150Z,0.5
2019-06-27T10:05:17.052Z,1.6
2019-06-27T10:10:23.547Z,1.5
2019-06-27T10:15:17.678Z,1.7
2019-06-27T10:20:17.986Z,0.7
2019-06-27T10:25:16.920Z,0.9
2019-06-27T10:30:22.981Z,0.3
2019-06-27T10:35:16.855Z,0.2
2019-06-27T10:40:16.898Z,0.3
2019-06-27T10:45:17.033Z,1.6
2019-06-27T10:50:17.114Z,1
2019-06-27T10:55:17.007Z,0.6
2019-06-27T11:00:16.982Z,1
2019-06-27T11:05:17.017Z,1.6
2019-06-27T11:10:17.023Z,1.1
2019-06-27T11:15:16.917Z,0.5
2019-06-27T11:20:17.137Z,1.5
2019-06-27T11:25:17.201Z,1.8
2019-06-27T11:30:17.084Z,2
2019-06-27T11:35:17.130Z,0.6
2019-06-27T11:40:17.289Z,0.4
2019-06-27T11:45:17.219Z,0.3
2019-06-27T11:50:17.327Z,1.2
2019-06-27T11:55:17.381Z,1.4
2019-06-27T12:00:17.488Z,0.8
2019-06-27T12:05:17.377Z,0.2
2019-06-27T12:10:17.538Z,0.6
2019-06-27T12:15:17.430Z,0.9
2019-06-27T12:20:17.668Z,0.2
2019-06-27T12:25:17.554Z,0.6
2019-06-27T12:30:17.542Z,0.4
2019-06-27T12:35:17.644Z,0.2
2019-06-27T12:40:17.655Z,1
2019-06-27T12:45:17.800Z,0.5
2019-06-27T12:50:18.063Z,3.9
2019-06-27T12:55:16.917Z,4.1
2019-06-27T13:00:16.823Z,1.3
2019-06-27T13:05:20.873Z,0.2
2019-06-27T13:10:22.113Z,1.9
2019-06-27T13:15:16.990Z,2.2
2019-06-27T13:20:17.046Z,3.3
2019-06-27T13:25:17.084Z,1.1
2019-06-27T13:30:17.006Z,2.9
2019-06-27T13:35:16.890Z,2.1
2019-06-27T13:40:17.072Z,1.9
2019-06-27T13:45:16.939Z,1.4
2019-06-27T13:50:17.867Z,1.9
2019-06-27T13:55:17.775Z,0.5
2019-06-27T14:00:17.801Z,2.7
2019-06-27T14:05:17.700Z,2.9
2019-06-27T14:10:17.948Z,0.9
2019-06-27T14:15:16.827Z,2.3
2019-06-27T14:20:16.896Z,2.5
2019-06-27T14:25:16.929Z,2.1
2019-06-27T14:30:16.817Z,1.7
2019-06-27T14:35:17.728Z,1.2
2019-06-27T14:40:16.777Z,1.1
2019-06-27T14:45:17.693Z,0.5
2019-06-27T14:50:17.564Z,1.8
2019-06-27T14:55:17.453Z,1.4
2019-06-27T15:00:17.352Z,0.5
2019-06-27T15:05:33.252Z,1.1
2019-06-27T15:10:17.658Z,1.2
2019-06-27T15:15:17.559Z,1.5
2019-06-27T15:20:17.735Z,1.2
2019-06-27T15:25:17.686Z,2
2019-06-27T15:30:17.696Z,1.9
2019-06-27T15:35:17.640Z,1.7
2019-06-27T15:40:18.739Z,1
2019-06-27T15:45:17.648Z,2.3
2019-06-27T15:50:17.540Z,1.9
2019-06-27T15:55:17.430Z,2.2
2019-06-27T16:00:17.347Z,1.1
2019-06-27T16:05:17.442Z,0.9
2019-06-27T16:10:17.507Z,1.1
2019-06-27T16:15:17.384Z,0.6
2019-06-27T16:20:17.446Z,0.7
2019-06-27T16:25:17.353Z,1.7
2019-06-27T16:30:22.400Z,1.4
2019-06-27T16:35:17.324Z,1.5
2019-06-27T16:40:17.376Z,0.5
2019-06-27T16:45:17.302Z,1.8
2019-06-27T16:50:17.232Z,1.3
2019-06-27T16:55:17.372Z,1.3
2019-06-27T17:00:17.286Z,1.7
2019-06-27T17:05:17.193Z,2.6
2019-06-27T17:10:17.231Z,1.4
2019-06-27T17:15:17.141Z,1
2019-06-27T17:20:22.275Z,0.8
2019-06-27T17:25:17.196Z,2.2
2019-06-27T17:30:17.090Z,1.2
2019-06-27T17:35:16.986Z,0.9
2019-06-27T17:40:17.091Z,1.6
2019-06-27T17:45:18.050Z,0.7
2019-06-27T17:50:17.967Z,3
2019-06-27T17:55:17.896Z,0.9
2019-06-27T18:00:17.787Z,2.2
2019-06-27T18:05:18.958Z,1.7
2019-06-27T18:10:17.295Z,2.7
2019-06-27T18:15:17.207Z,1.4
2019-06-27T18:20:17.273Z,0.7
2019-06-27T18:25:17.164Z,1.5
2019-06-27T18:30:17.074Z,1.6
2019-06-27T18:35:21.965Z,1.8
2019-06-27T18:40:17.012Z,2.6
2019-06-27T18:45:22.925Z,3.8
2019-06-27T18:50:17.812Z,2.8
2019-06-27T18:55:17.713Z,2
2019-06-27T19:00:17.621Z,2
2019-06-27T19:05:17.520Z,2.3
2019-06-27T19:10:17.558Z,1.9
2019-06-27T19:15:17.690Z,1.1
2019-06-27T19:20:18.018Z,2.3
2019-06-27T19:25:17.920Z,3.1
2019-06-27T19:30:17.838Z,1.1
2019-06-27T19:35:17.989Z,2.7
2019-06-27T19:40:17.466Z,1.5
2019-06-27T19:45:17.399Z,2.8
2019-06-27T19:50:17.361Z,2.7
2019-06-27T19:55:22.267Z,1.5
2019-06-27T20:00:17.175Z,3.2
2019-06-27T20:05:17.096Z,3
2019-06-27T20:10:17.134Z,1.2
2019-06-27T20:15:18.052Z,2.8
2019-06-27T20:20:17.146Z,3.1
2019-06-27T20:25:18.093Z,2.8
2019-06-27T20:30:18.035Z,3.1
2019-06-27T20:35:17.934Z,1.1
2019-06-27T20:40:19.025Z,3
2019-06-27T20:45:17.822Z,3
2019-06-27T20:50:17.711Z,2.6
2019-06-27T20:55:17.590Z,3
2019-06-27T21:00:17.662Z,2.3
2019-06-27T21:05:17.588Z,2.8
2019-06-27T21:10:17.609Z,2.4
2019-06-27T21:15:17.504Z,3
2019-06-27T21:20:17.577Z,3.1
2019-06-27T21:25:22.507Z,3.8
2019-06-27T21:30:17.426Z,3.1
2019-06-27T21:35:17.321Z,1.1
2019-06-27T21:40:17.365Z,3.2
2019-06-27T21:45:17.307Z,3.3
2019-06-27T21:50:17.255Z,2.7
2019-06-27T21:55:17.194Z,3.4
2019-06-27T22:00:17.074Z,3.3
2019-06-27T22:05:16.965Z,3.6
2019-06-27T22:10:17.005Z,3.8
2019-06-27T22:15:16.917Z,3.2
2019-06-27T22:20:17.036Z,3.5
2019-06-27T22:25:16.972Z,3.3
2019-06-27T22:30:16.933Z,3.4
2019-06-27T22:35:16.830Z,2.1
2019-06-27T22:40:17.081Z,2.9
2019-06-27T22:45:16.988Z,3.1
2019-06-27T22:50:16.904Z,3.3
2019-06-27T22:55:17.789Z,3.6
2019-06-27T23:00:17.688Z,3.6
2019-06-27T23:05:17.702Z,3.2
2019-06-27T23:10:22.828Z,3.3
2019-06-27T23:15:17.750Z,4.1
2019-06-27T23:20:21.867Z,3.4
2019-06-27T23:25:17.967Z,1.9
2019-06-27T23:30:16.889Z,3.4
2019-06-27T23:35:17.807Z,3.5
2019-06-27T23:40:16.835Z,3.2
2019-06-27T23:45:17.770Z,3.8
2019-06-27T23:50:17.706Z,3.4
2019-06-27T23:55:17.855Z,2.9
